UZB9768 UAAA-UZNN
Flight info
| Callsign | UZB9768 |
|---|---|
| Flight time | N/A |
| Altitude | 34000 |
| Route | TIPSA1A TIPSA M610 ARBOL Z621 ELAHA N147 BABIR Y114 BALSO BALSO3V |
| Aircraft | A320/M-SDE3FGHIRWY/LB1 |
Departure
| Time | 2026-04-23 08:57 |
|---|---|
| Airport | Almaty International Airport (UAAA) |
Arrival
| Time | N/A |
|---|---|
| Airport | UZNN |
| Time | Latitude | Longitude | Altitude | Speed | Heading |
|---|---|---|---|---|---|
| 2026-04-23 08:37 | 43.34874 | 77.01353 | 2228 ft | 0 kts | 246° |
| 2026-04-23 08:39 | 43.34874 | 77.01354 | 2228 ft | 3 kts | 246° |
| 2026-04-23 08:40 | 43.34883 | 77.01380 | 2228 ft | 3 kts | 245° |
| 2026-04-23 08:40 | 43.34892 | 77.01405 | 2223 ft | 3 kts | 245° |
| 2026-04-23 08:40 | 43.34900 | 77.01431 | 2223 ft | 3 kts | 245° |
| 2026-04-23 08:40 | 43.34912 | 77.01454 | 2223 ft | 3 kts | 204° |
| 2026-04-23 08:41 | 43.34931 | 77.01462 | 2224 ft | 3 kts | 171° |
| 2026-04-23 08:41 | 43.34943 | 77.01458 | 2226 ft | 0 kts | 156° |
| 2026-04-23 08:45 | 43.34941 | 77.01459 | 2226 ft | 2 kts | 156° |
| 2026-04-23 08:45 | 43.34928 | 77.01467 | 2224 ft | 3 kts | 156° |
| 2026-04-23 08:45 | 43.34904 | 77.01482 | 2225 ft | 5 kts | 154° |
| 2026-04-23 08:45 | 43.34858 | 77.01506 | 2228 ft | 9 kts | 163° |
| 2026-04-23 08:46 | 43.34818 | 77.01559 | 2226 ft | 8 kts | 103° |
| 2026-04-23 08:46 | 43.34815 | 77.01622 | 2223 ft | 6 kts | 92° |
| 2026-04-23 08:46 | 43.34813 | 77.01668 | 2228 ft | 4 kts | 93° |
| 2026-04-23 08:46 | 43.34811 | 77.01716 | 2226 ft | 7 kts | 93° |
| 2026-04-23 08:47 | 43.34806 | 77.01811 | 2228 ft | 11 kts | 94° |
| 2026-04-23 08:47 | 43.34801 | 77.01914 | 2228 ft | 10 kts | 94° |
| 2026-04-23 08:47 | 43.34796 | 77.02014 | 2228 ft | 11 kts | 94° |
| 2026-04-23 08:47 | 43.34791 | 77.02116 | 2228 ft | 11 kts | 93° |
| 2026-04-23 08:48 | 43.34786 | 77.02222 | 2228 ft | 11 kts | 94° |
| 2026-04-23 08:48 | 43.34781 | 77.02331 | 2228 ft | 12 kts | 94° |
| 2026-04-23 08:48 | 43.34776 | 77.02439 | 2228 ft | 11 kts | 93° |
| 2026-04-23 08:48 | 43.34771 | 77.02547 | 2225 ft | 12 kts | 92° |
| 2026-04-23 08:49 | 43.34803 | 77.02654 | 2225 ft | 13 kts | 55° |
| 2026-04-23 08:49 | 43.34859 | 77.02768 | 2225 ft | 15 kts | 56° |
| 2026-04-23 08:49 | 43.34919 | 77.02889 | 2226 ft | 16 kts | 56° |
| 2026-04-23 08:49 | 43.34985 | 77.03023 | 2225 ft | 18 kts | 56° |
| 2026-04-23 08:50 | 43.35055 | 77.03163 | 2227 ft | 17 kts | 55° |
| 2026-04-23 08:50 | 43.35125 | 77.03302 | 2226 ft | 18 kts | 55° |
| 2026-04-23 08:50 | 43.35198 | 77.03448 | 2227 ft | 19 kts | 56° |
| 2026-04-23 08:50 | 43.35273 | 77.03602 | 2226 ft | 20 kts | 56° |
| 2026-04-23 08:51 | 43.35345 | 77.03746 | 2224 ft | 18 kts | 56° |
| 2026-04-23 08:51 | 43.35418 | 77.03895 | 2225 ft | 20 kts | 56° |
| 2026-04-23 08:51 | 43.35496 | 77.04053 | 2223 ft | 20 kts | 55° |
| 2026-04-23 08:51 | 43.35577 | 77.04214 | 2223 ft | 21 kts | 56° |
| 2026-04-23 08:52 | 43.35656 | 77.04375 | 2225 ft | 20 kts | 56° |
| 2026-04-23 08:52 | 43.35737 | 77.04538 | 2225 ft | 21 kts | 56° |
| 2026-04-23 08:52 | 43.35816 | 77.04696 | 2224 ft | 20 kts | 56° |
| 2026-04-23 08:52 | 43.35896 | 77.04858 | 2226 ft | 21 kts | 56° |
| 2026-04-23 08:53 | 43.35973 | 77.05012 | 2223 ft | 19 kts | 56° |
| 2026-04-23 08:53 | 43.36049 | 77.05167 | 2224 ft | 20 kts | 56° |
| 2026-04-23 08:53 | 43.36125 | 77.05321 | 2227 ft | 20 kts | 56° |
| 2026-04-23 08:53 | 43.36203 | 77.05479 | 2226 ft | 20 kts | 56° |
| 2026-04-23 08:54 | 43.36282 | 77.05639 | 2227 ft | 21 kts | 56° |
| 2026-04-23 08:54 | 43.36368 | 77.05810 | 2225 ft | 22 kts | 55° |
| 2026-04-23 08:54 | 43.36446 | 77.05967 | 2222 ft | 18 kts | 56° |
| 2026-04-23 08:54 | 43.36499 | 77.06080 | 2224 ft | 10 kts | 70° |
| 2026-04-23 08:55 | 43.36485 | 77.06148 | 2224 ft | 6 kts | 127° |
| 2026-04-23 08:55 | 43.36455 | 77.06179 | 2226 ft | 5 kts | 149° |
| 2026-04-23 08:55 | 43.36415 | 77.06199 | 2228 ft | 7 kts | 172° |
| 2026-04-23 08:55 | 43.36354 | 77.06188 | 2224 ft | 10 kts | 190° |
| 2026-04-23 08:56 | 43.36303 | 77.06140 | 2227 ft | 8 kts | 232° |
| 2026-04-23 08:56 | 43.36262 | 77.06060 | 2227 ft | 23 kts | 235° |
| 2026-04-23 08:56 | 43.36030 | 77.05589 | 2228 ft | 93 kts | 236° |
| 2026-04-23 08:56 | 43.35551 | 77.04627 | 2227 ft | 149 kts | 236° |
| 2026-04-23 08:57 | 43.34879 | 77.03277 | 2292 ft | 187 kts | 235° |
| 2026-04-23 08:57 | 43.34152 | 77.01816 | 3013 ft | 185 kts | 238° |
| 2026-04-23 08:57 | 43.33445 | 77.00333 | 3688 ft | 189 kts | 240° |
| 2026-04-23 08:57 | 43.32708 | 76.98716 | 3946 ft | 211 kts | 240° |
| 2026-04-23 08:58 | 43.31896 | 76.96921 | 4208 ft | 233 kts | 240° |
| 2026-04-23 08:58 | 43.31046 | 76.94907 | 4545 ft | 254 kts | 250° |
| 2026-04-23 08:58 | 43.30919 | 76.92486 | 5101 ft | 263 kts | 286° |
| 2026-04-23 08:58 | 43.31883 | 76.90374 | 5854 ft | 267 kts | 319° |
| 2026-04-23 08:59 | 43.33353 | 76.89093 | 6644 ft | 271 kts | 333° |
| 2026-04-23 08:59 | 43.35100 | 76.88058 | 7413 ft | 276 kts | 336° |
| 2026-04-23 08:59 | 43.36900 | 76.87083 | 8131 ft | 280 kts | 336° |
| 2026-04-23 08:59 | 43.38710 | 76.86037 | 8891 ft | 285 kts | 335° |
| 2026-04-23 09:00 | 43.40523 | 76.84887 | 9616 ft | 289 kts | 333° |
| 2026-04-23 09:00 | 43.42343 | 76.83643 | 9908 ft | 293 kts | 331° |
| 2026-04-23 09:00 | 43.44157 | 76.82242 | 9972 ft | 312 kts | 323° |
| 2026-04-23 09:00 | 43.45788 | 76.80097 | 9989 ft | 338 kts | 305° |
| 2026-04-23 09:01 | 43.46926 | 76.77233 | 10451 ft | 344 kts | 290° |
| 2026-04-23 09:01 | 43.47821 | 76.74152 | 11075 ft | 349 kts | 290° |
| 2026-04-23 09:01 | 43.48743 | 76.71038 | 11731 ft | 353 kts | 290° |
| 2026-04-23 09:01 | 43.49680 | 76.67892 | 12352 ft | 358 kts | 290° |
| 2026-04-23 09:02 | 43.50634 | 76.64698 | 12982 ft | 363 kts | 290° |
| 2026-04-23 09:02 | 43.51596 | 76.61464 | 13602 ft | 367 kts | 289° |
| 2026-04-23 09:02 | 43.52560 | 76.58190 | 14187 ft | 371 kts | 289° |
| 2026-04-23 09:02 | 43.53527 | 76.54891 | 14822 ft | 372 kts | 289° |
| 2026-04-23 09:03 | 43.54492 | 76.51580 | 15452 ft | 373 kts | 289° |
| 2026-04-23 09:03 | 43.55459 | 76.48260 | 16104 ft | 373 kts | 289° |
| 2026-04-23 09:03 | 43.56427 | 76.44935 | 16736 ft | 374 kts | 289° |
| 2026-04-23 09:03 | 43.57400 | 76.41593 | 17391 ft | 376 kts | 289° |
| 2026-04-23 09:04 | 43.58375 | 76.38242 | 18045 ft | 377 kts | 289° |
| 2026-04-23 09:04 | 43.59343 | 76.34869 | 18599 ft | 378 kts | 287° |
| 2026-04-23 09:04 | 43.60006 | 76.31370 | 19108 ft | 377 kts | 276° |
| 2026-04-23 09:04 | 43.60244 | 76.27778 | 19655 ft | 376 kts | 271° |
| 2026-04-23 09:05 | 43.60411 | 76.24164 | 20179 ft | 378 kts | 271° |
| 2026-04-23 09:05 | 43.60580 | 76.20531 | 20676 ft | 381 kts | 271° |
| 2026-04-23 09:05 | 43.60752 | 76.16872 | 21146 ft | 383 kts | 271° |
| 2026-04-23 09:05 | 43.60924 | 76.13192 | 21611 ft | 386 kts | 270° |
| 2026-04-23 09:06 | 43.61096 | 76.09479 | 22053 ft | 389 kts | 270° |
| 2026-04-23 09:06 | 43.61268 | 76.05740 | 22487 ft | 392 kts | 270° |
| 2026-04-23 09:06 | 43.61444 | 76.01974 | 22924 ft | 394 kts | 270° |
| 2026-04-23 09:06 | 43.61622 | 75.98188 | 23348 ft | 397 kts | 270° |
| 2026-04-23 09:07 | 43.61797 | 75.94382 | 23724 ft | 399 kts | 270° |
| 2026-04-23 09:07 | 43.61966 | 75.90608 | 24077 ft | 400 kts | 270° |
| 2026-04-23 09:07 | 43.62132 | 75.86771 | 24443 ft | 401 kts | 270° |
| 2026-04-23 09:07 | 43.62298 | 75.82925 | 24808 ft | 402 kts | 270° |
| 2026-04-23 09:08 | 43.62467 | 75.79075 | 25181 ft | 403 kts | 270° |
| 2026-04-23 09:08 | 43.62638 | 75.75213 | 25547 ft | 404 kts | 270° |
| 2026-04-23 09:08 | 43.62809 | 75.71343 | 25878 ft | 405 kts | 270° |
| 2026-04-23 09:08 | 43.62981 | 75.67460 | 26209 ft | 406 kts | 269° |
| 2026-04-23 09:09 | 43.63151 | 75.63570 | 26551 ft | 407 kts | 269° |
| 2026-04-23 09:09 | 43.63315 | 75.59669 | 26884 ft | 407 kts | 269° |
| 2026-04-23 09:09 | 43.63479 | 75.55713 | 27209 ft | 408 kts | 269° |
| 2026-04-23 09:09 | 43.63640 | 75.51798 | 27518 ft | 409 kts | 269° |
| 2026-04-23 09:10 | 43.63800 | 75.47876 | 27821 ft | 410 kts | 269° |
| 2026-04-23 09:10 | 43.64117 | 75.40012 | 28372 ft | 412 kts | 269° |
| 2026-04-23 09:10 | 43.64276 | 75.36057 | 28610 ft | 413 kts | 269° |
| 2026-04-23 09:11 | 43.64432 | 75.32088 | 28866 ft | 414 kts | 268° |
| 2026-04-23 09:11 | 43.64586 | 75.28110 | 29109 ft | 415 kts | 268° |
| 2026-04-23 09:11 | 43.64739 | 75.24179 | 29335 ft | 416 kts | 268° |
| 2026-04-23 09:11 | 43.64896 | 75.20149 | 29664 ft | 415 kts | 268° |
| 2026-04-23 09:12 | 43.65049 | 75.16176 | 29991 ft | 414 kts | 268° |
| 2026-04-23 09:12 | 43.65202 | 75.12209 | 30248 ft | 413 kts | 268° |
| 2026-04-23 09:12 | 43.65353 | 75.08259 | 30514 ft | 412 kts | 268° |
| 2026-04-23 09:12 | 43.65502 | 75.04315 | 30773 ft | 411 kts | 268° |
| 2026-04-23 09:13 | 43.65598 | 75.01701 | 30894 ft | 412 kts | 268° |
| 2026-04-23 09:13 | 43.65741 | 74.97745 | 31131 ft | 412 kts | 268° |
| 2026-04-23 09:13 | 43.65885 | 74.93808 | 31408 ft | 411 kts | 268° |
| 2026-04-23 09:13 | 43.66027 | 74.89876 | 31720 ft | 409 kts | 268° |
| 2026-04-23 09:14 | 43.66168 | 74.85963 | 32048 ft | 407 kts | 268° |
| 2026-04-23 09:14 | 43.66308 | 74.82078 | 32353 ft | 405 kts | 267° |
| 2026-04-23 09:14 | 43.66445 | 74.78203 | 32666 ft | 402 kts | 267° |
| 2026-04-23 09:14 | 43.66577 | 74.74357 | 32967 ft | 400 kts | 267° |
| 2026-04-23 09:15 | 43.66705 | 74.70527 | 33262 ft | 398 kts | 267° |
| 2026-04-23 09:15 | 43.66830 | 74.66719 | 33554 ft | 396 kts | 267° |
| 2026-04-23 09:15 | 43.66953 | 74.62925 | 33860 ft | 394 kts | 266° |
| 2026-04-23 09:15 | 43.67078 | 74.59147 | 34004 ft | 394 kts | 266° |
| 2026-04-23 09:16 | 43.67202 | 74.55370 | 34030 ft | 393 kts | 266° |
| 2026-04-23 09:16 | 43.67452 | 74.47829 | 34028 ft | 393 kts | 266° |
| 2026-04-23 09:17 | 43.67686 | 74.40287 | 34269 ft | 393 kts | 266° |
| 2026-04-23 09:17 | 43.67804 | 74.36519 | 34506 ft | 392 kts | 266° |
| 2026-04-23 09:17 | 43.67923 | 74.32756 | 34720 ft | 392 kts | 266° |
| 2026-04-23 09:17 | 43.68038 | 74.28992 | 34907 ft | 392 kts | 266° |
| 2026-04-23 09:18 | 43.68147 | 74.25238 | 35115 ft | 391 kts | 266° |
| 2026-04-23 09:18 | 43.68256 | 74.21492 | 35316 ft | 390 kts | 266° |
| 2026-04-23 09:18 | 43.68369 | 74.17758 | 35523 ft | 389 kts | 267° |
| 2026-04-23 09:18 | 43.68485 | 74.14027 | 35710 ft | 388 kts | 267° |
| 2026-04-23 09:19 | 43.68601 | 74.10311 | 35898 ft | 387 kts | 267° |
| 2026-04-23 09:19 | 43.68712 | 74.06598 | 36034 ft | 387 kts | 266° |
| 2026-04-23 09:19 | 43.68820 | 74.02889 | 36020 ft | 386 kts | 266° |
| 2026-04-23 09:20 | 43.69033 | 73.95477 | 36021 ft | 386 kts | 266° |
| 2026-04-23 09:20 | 43.69249 | 73.88068 | 36010 ft | 386 kts | 266° |
| 2026-04-23 09:21 | 43.69459 | 73.80659 | 36006 ft | 386 kts | 266° |
| 2026-04-23 09:21 | 43.69542 | 73.73275 | 36002 ft | 381 kts | 261° |
| 2026-04-23 09:22 | 43.69165 | 73.65969 | 36001 ft | 381 kts | 261° |
| 2026-04-23 09:22 | 43.68788 | 73.58662 | 36016 ft | 381 kts | 261° |
| 2026-04-23 09:23 | 43.68417 | 73.51359 | 36014 ft | 381 kts | 261° |
| 2026-04-23 09:23 | 43.68040 | 73.44069 | 36008 ft | 381 kts | 260° |
| 2026-04-23 09:24 | 43.67654 | 73.36777 | 36007 ft | 381 kts | 260° |
| 2026-04-23 09:24 | 43.67258 | 73.29486 | 36023 ft | 381 kts | 260° |
| 2026-04-23 09:25 | 43.66860 | 73.22192 | 36014 ft | 381 kts | 260° |
| 2026-04-23 09:25 | 43.66459 | 73.14893 | 36012 ft | 381 kts | 260° |
| 2026-04-23 09:26 | 43.66057 | 73.07590 | 36012 ft | 382 kts | 260° |
| 2026-04-23 09:26 | 43.65649 | 73.00284 | 36009 ft | 382 kts | 260° |
| 2026-04-23 09:27 | 43.65234 | 72.92979 | 36019 ft | 381 kts | 259° |
| 2026-04-23 09:27 | 43.64819 | 72.85674 | 36003 ft | 382 kts | 259° |
| 2026-04-23 09:28 | 43.64397 | 72.78405 | 36002 ft | 383 kts | 259° |
| 2026-04-23 09:28 | 43.63966 | 72.71030 | 36002 ft | 383 kts | 259° |
| 2026-04-23 09:29 | 43.63532 | 72.63700 | 36004 ft | 383 kts | 259° |
| 2026-04-23 09:29 | 43.63091 | 72.56368 | 36016 ft | 384 kts | 259° |
| 2026-04-23 09:30 | 43.62640 | 72.49074 | 36014 ft | 384 kts | 259° |
| 2026-04-23 09:30 | 43.62187 | 72.41715 | 36011 ft | 385 kts | 259° |
| 2026-04-23 09:31 | 43.61737 | 72.34348 | 36017 ft | 385 kts | 259° |
| 2026-04-23 09:31 | 43.61280 | 72.26974 | 36030 ft | 386 kts | 259° |
| 2026-04-23 09:32 | 43.60813 | 72.19586 | 36041 ft | 387 kts | 259° |
| 2026-04-23 09:32 | 43.60338 | 72.12186 | 36031 ft | 387 kts | 259° |
| 2026-04-23 09:33 | 43.59860 | 72.04788 | 36027 ft | 387 kts | 259° |
| 2026-04-23 09:33 | 43.59375 | 71.97391 | 36024 ft | 387 kts | 259° |
| 2026-04-23 09:34 | 43.58888 | 71.89990 | 36024 ft | 388 kts | 259° |
| 2026-04-23 09:34 | 43.58399 | 71.82576 | 36039 ft | 389 kts | 259° |
| 2026-04-23 09:35 | 43.57900 | 71.75150 | 36036 ft | 389 kts | 259° |
| 2026-04-23 09:35 | 43.57395 | 71.67711 | 36033 ft | 390 kts | 259° |
| 2026-04-23 09:36 | 43.56882 | 71.60269 | 36036 ft | 390 kts | 259° |
| 2026-04-23 09:36 | 43.56371 | 71.52826 | 36036 ft | 390 kts | 259° |
| 2026-04-23 09:37 | 43.55857 | 71.45381 | 36053 ft | 390 kts | 259° |
| 2026-04-23 09:37 | 43.55331 | 71.37933 | 36045 ft | 390 kts | 259° |
| 2026-04-23 09:38 | 43.54798 | 71.30491 | 36038 ft | 390 kts | 259° |
| 2026-04-23 09:38 | 43.54263 | 71.23051 | 36033 ft | 390 kts | 259° |
| 2026-04-23 09:39 | 43.53727 | 71.15612 | 36031 ft | 390 kts | 259° |
| 2026-04-23 09:39 | 43.53184 | 71.08182 | 36026 ft | 390 kts | 259° |
| 2026-04-23 09:40 | 43.52632 | 71.00753 | 36023 ft | 390 kts | 258° |
| 2026-04-23 09:40 | 43.52081 | 70.93327 | 36021 ft | 390 kts | 258° |
| 2026-04-23 09:41 | 43.51523 | 70.85898 | 36021 ft | 390 kts | 258° |
| 2026-04-23 09:41 | 43.50951 | 70.78471 | 36039 ft | 390 kts | 258° |
| 2026-04-23 09:42 | 43.50375 | 70.71030 | 36026 ft | 391 kts | 258° |
| 2026-04-23 09:42 | 43.49796 | 70.63582 | 36027 ft | 391 kts | 258° |
| 2026-04-23 09:43 | 43.49211 | 70.56130 | 36025 ft | 391 kts | 258° |
| 2026-04-23 09:43 | 43.48614 | 70.48676 | 36024 ft | 392 kts | 258° |
| 2026-04-23 09:44 | 43.48008 | 70.41221 | 36034 ft | 392 kts | 258° |
| 2026-04-23 09:44 | 43.47408 | 70.33758 | 36032 ft | 393 kts | 258° |
| 2026-04-23 09:45 | 43.46805 | 70.26279 | 36032 ft | 393 kts | 258° |
| 2026-04-23 09:45 | 43.46191 | 70.18800 | 36039 ft | 393 kts | 258° |
| 2026-04-23 09:46 | 43.45571 | 70.11313 | 36040 ft | 394 kts | 258° |
| 2026-04-23 09:46 | 43.44943 | 70.03827 | 36069 ft | 394 kts | 258° |
| 2026-04-23 09:47 | 43.44308 | 69.96333 | 36060 ft | 395 kts | 258° |
| 2026-04-23 09:47 | 43.43673 | 69.88829 | 36057 ft | 395 kts | 258° |
| 2026-04-23 09:48 | 43.43030 | 69.81326 | 36059 ft | 395 kts | 258° |
| 2026-04-23 09:48 | 43.42383 | 69.73820 | 36066 ft | 395 kts | 258° |
| 2026-04-23 09:49 | 43.41754 | 69.66309 | 36065 ft | 396 kts | 258° |
| 2026-04-23 09:49 | 43.41133 | 69.58785 | 36063 ft | 396 kts | 258° |
| 2026-04-23 09:50 | 43.40503 | 69.51262 | 36059 ft | 396 kts | 258° |
| 2026-04-23 09:50 | 43.39864 | 69.43738 | 36063 ft | 396 kts | 258° |
| 2026-04-23 09:51 | 43.39219 | 69.36221 | 36050 ft | 396 kts | 258° |
| 2026-04-23 09:51 | 43.38573 | 69.28697 | 36060 ft | 396 kts | 258° |
| 2026-04-23 09:52 | 43.37914 | 69.21171 | 36056 ft | 397 kts | 258° |
| 2026-04-23 09:52 | 43.37254 | 69.13631 | 36060 ft | 398 kts | 258° |
| 2026-04-23 09:53 | 43.36636 | 69.06073 | 36053 ft | 398 kts | 258° |
| 2026-04-23 09:53 | 43.36023 | 68.98511 | 36055 ft | 398 kts | 258° |
| 2026-04-23 09:54 | 43.35501 | 68.92225 | 36072 ft | 399 kts | 258° |
| 2026-04-23 09:54 | 43.34860 | 68.84657 | 36063 ft | 399 kts | 258° |
| 2026-04-23 09:55 | 43.34210 | 68.77083 | 36059 ft | 399 kts | 258° |
| 2026-04-23 09:55 | 43.33561 | 68.69501 | 36061 ft | 400 kts | 258° |
| 2026-04-23 09:56 | 43.32905 | 68.61918 | 36063 ft | 400 kts | 258° |
| 2026-04-23 09:56 | 43.32200 | 68.54342 | 36072 ft | 400 kts | 257° |
| 2026-04-23 09:57 | 43.31296 | 68.46816 | 36072 ft | 399 kts | 255° |
| 2026-04-23 09:57 | 43.30326 | 68.39298 | 36057 ft | 400 kts | 256° |
| 2026-04-23 09:58 | 43.29236 | 68.31821 | 36046 ft | 399 kts | 252° |
| 2026-04-23 09:58 | 43.27856 | 68.24462 | 36060 ft | 398 kts | 251° |
| 2026-04-23 09:59 | 43.26414 | 68.17121 | 36039 ft | 399 kts | 251° |
| 2026-04-23 09:59 | 43.25010 | 68.09754 | 36033 ft | 400 kts | 252° |
| 2026-04-23 10:00 | 43.23640 | 68.02358 | 36031 ft | 400 kts | 252° |
| 2026-04-23 10:00 | 43.22270 | 67.94957 | 36036 ft | 400 kts | 252° |
| 2026-04-23 10:01 | 43.20884 | 67.87558 | 36048 ft | 401 kts | 252° |
| 2026-04-23 10:01 | 43.19497 | 67.80210 | 36041 ft | 401 kts | 252° |
| 2026-04-23 10:02 | 43.18087 | 67.72763 | 36037 ft | 401 kts | 251° |
| 2026-04-23 10:02 | 43.16678 | 67.65371 | 36026 ft | 401 kts | 251° |
| 2026-04-23 10:03 | 43.15265 | 67.57986 | 36025 ft | 401 kts | 251° |
| 2026-04-23 10:03 | 43.13862 | 67.50652 | 36018 ft | 401 kts | 251° |
| 2026-04-23 10:04 | 43.12449 | 67.43270 | 36018 ft | 401 kts | 251° |
| 2026-04-23 10:04 | 43.11026 | 67.35891 | 36009 ft | 401 kts | 251° |
| 2026-04-23 10:05 | 43.09593 | 67.28509 | 36012 ft | 401 kts | 251° |
| 2026-04-23 10:05 | 43.08157 | 67.21128 | 36017 ft | 402 kts | 251° |
| 2026-04-23 10:06 | 43.06716 | 67.13737 | 36012 ft | 402 kts | 251° |
| 2026-04-23 10:06 | 43.05273 | 67.06342 | 36008 ft | 403 kts | 251° |
| 2026-04-23 10:07 | 43.03820 | 66.98951 | 36004 ft | 403 kts | 251° |
| 2026-04-23 10:07 | 43.02362 | 66.91553 | 36018 ft | 403 kts | 251° |
| 2026-04-23 10:08 | 43.00898 | 66.84153 | 36010 ft | 404 kts | 251° |
| 2026-04-23 10:08 | 42.99428 | 66.76753 | 36005 ft | 403 kts | 251° |
| 2026-04-23 10:09 | 42.97189 | 66.65680 | 36004 ft | 403 kts | 251° |
| 2026-04-23 10:09 | 42.95674 | 66.58306 | 36019 ft | 404 kts | 251° |
| 2026-04-23 10:10 | 42.94184 | 66.50915 | 36014 ft | 404 kts | 251° |
| 2026-04-23 10:10 | 42.92703 | 66.43516 | 36005 ft | 404 kts | 251° |
| 2026-04-23 10:11 | 42.91219 | 66.36121 | 36002 ft | 404 kts | 251° |
| 2026-04-23 10:11 | 42.89722 | 66.28730 | 36002 ft | 404 kts | 251° |
| 2026-04-23 10:12 | 42.88215 | 66.21340 | 36007 ft | 405 kts | 251° |
| 2026-04-23 10:12 | 42.86703 | 66.13944 | 35999 ft | 405 kts | 251° |
| 2026-04-23 10:13 | 42.85186 | 66.06550 | 35995 ft | 405 kts | 251° |
| 2026-04-23 10:13 | 42.83655 | 65.99161 | 35990 ft | 405 kts | 251° |
| 2026-04-23 10:14 | 42.82123 | 65.91774 | 35993 ft | 405 kts | 251° |
| 2026-04-23 10:14 | 42.80571 | 65.84390 | 35988 ft | 406 kts | 251° |
| 2026-04-23 10:15 | 42.79021 | 65.77004 | 35988 ft | 406 kts | 251° |
| 2026-04-23 10:15 | 42.77468 | 65.69616 | 35988 ft | 406 kts | 251° |
| 2026-04-23 10:16 | 42.75902 | 65.62234 | 35987 ft | 406 kts | 251° |
| 2026-04-23 10:16 | 42.74332 | 65.54844 | 35991 ft | 407 kts | 251° |
| 2026-04-23 10:17 | 42.72770 | 65.47499 | 35986 ft | 407 kts | 251° |
| 2026-04-23 10:17 | 42.71189 | 65.40100 | 35989 ft | 408 kts | 251° |
| 2026-04-23 10:18 | 42.69611 | 65.32696 | 35993 ft | 408 kts | 251° |
| 2026-04-23 10:18 | 42.68019 | 65.25293 | 36005 ft | 408 kts | 251° |
| 2026-04-23 10:19 | 42.66418 | 65.17877 | 35995 ft | 409 kts | 251° |
| 2026-04-23 10:19 | 42.64815 | 65.10450 | 35997 ft | 410 kts | 251° |
| 2026-04-23 10:20 | 42.63199 | 65.03017 | 36001 ft | 410 kts | 251° |
| 2026-04-23 10:20 | 42.61567 | 64.95588 | 36014 ft | 411 kts | 251° |
| 2026-04-23 10:21 | 42.59940 | 64.88139 | 36008 ft | 412 kts | 251° |
| 2026-04-23 10:21 | 42.58309 | 64.80677 | 36009 ft | 413 kts | 251° |
| 2026-04-23 10:22 | 42.56667 | 64.73210 | 36013 ft | 413 kts | 251° |
| 2026-04-23 10:22 | 42.55011 | 64.65748 | 36015 ft | 413 kts | 251° |
| 2026-04-23 10:23 | 42.53350 | 64.58286 | 36017 ft | 413 kts | 251° |
| 2026-04-23 10:23 | 42.51695 | 64.50823 | 36017 ft | 413 kts | 251° |
| 2026-04-23 10:24 | 42.50030 | 64.43368 | 36014 ft | 413 kts | 251° |
| 2026-04-23 10:24 | 42.48358 | 64.35919 | 36013 ft | 413 kts | 251° |
| 2026-04-23 10:25 | 42.46681 | 64.28475 | 36015 ft | 413 kts | 251° |
| 2026-04-23 10:25 | 42.44998 | 64.21034 | 36018 ft | 413 kts | 251° |
| 2026-04-23 10:26 | 42.43330 | 64.13585 | 36020 ft | 413 kts | 251° |
| 2026-04-23 10:26 | 42.41659 | 64.06137 | 36019 ft | 414 kts | 251° |
| 2026-04-23 10:27 | 42.39978 | 63.98694 | 36022 ft | 414 kts | 251° |
| 2026-04-23 10:27 | 42.38279 | 63.91259 | 36018 ft | 414 kts | 251° |
| 2026-04-23 10:28 | 42.36564 | 63.83823 | 36021 ft | 414 kts | 251° |
| 2026-04-23 10:28 | 42.34843 | 63.76393 | 36020 ft | 414 kts | 251° |
| 2026-04-23 10:29 | 42.33118 | 63.68964 | 36016 ft | 414 kts | 251° |
| 2026-04-23 10:29 | 42.31387 | 63.61541 | 36016 ft | 414 kts | 251° |
| 2026-04-23 10:30 | 42.29655 | 63.54117 | 36016 ft | 415 kts | 251° |
| 2026-04-23 10:30 | 42.27911 | 63.46696 | 36017 ft | 415 kts | 251° |
| 2026-04-23 10:31 | 42.26167 | 63.39269 | 36011 ft | 415 kts | 251° |
| 2026-04-23 10:31 | 42.24412 | 63.31848 | 36013 ft | 415 kts | 251° |
| 2026-04-23 10:32 | 42.22655 | 63.24419 | 36009 ft | 416 kts | 251° |
| 2026-04-23 10:32 | 42.20892 | 63.16995 | 36008 ft | 416 kts | 251° |
| 2026-04-23 10:33 | 42.19125 | 63.09569 | 36008 ft | 416 kts | 251° |
| 2026-04-23 10:33 | 42.17351 | 63.02145 | 36007 ft | 416 kts | 251° |
| 2026-04-23 10:34 | 42.15568 | 62.94723 | 36005 ft | 416 kts | 251° |
| 2026-04-23 10:34 | 42.13787 | 62.87296 | 36003 ft | 417 kts | 251° |
| 2026-04-23 10:35 | 42.12003 | 62.79873 | 36008 ft | 417 kts | 251° |
| 2026-04-23 10:35 | 42.10217 | 62.72448 | 36003 ft | 417 kts | 251° |
| 2026-04-23 10:36 | 42.08643 | 62.64938 | 35999 ft | 418 kts | 261° |
| 2026-04-23 10:36 | 42.08801 | 62.57166 | 35993 ft | 423 kts | 278° |
| 2026-04-23 10:37 | 42.09975 | 62.49391 | 36005 ft | 424 kts | 278° |
| 2026-04-23 10:37 | 42.11136 | 62.41610 | 35993 ft | 424 kts | 278° |
| 2026-04-23 10:38 | 42.12284 | 62.33817 | 36006 ft | 424 kts | 278° |
| 2026-04-23 10:38 | 42.13436 | 62.26019 | 36003 ft | 425 kts | 278° |
| 2026-04-23 10:39 | 42.14589 | 62.18213 | 36000 ft | 425 kts | 278° |
| 2026-04-23 10:39 | 42.15546 | 62.11673 | 36000 ft | 425 kts | 278° |
| 2026-04-23 10:40 | 42.16672 | 62.03914 | 36002 ft | 425 kts | 278° |
| 2026-04-23 10:40 | 42.17798 | 61.96098 | 35979 ft | 425 kts | 278° |
| 2026-04-23 10:41 | 42.18360 | 61.92182 | 35723 ft | 425 kts | 278° |
| 2026-04-23 10:41 | 42.18923 | 61.88267 | 35494 ft | 425 kts | 278° |
| 2026-04-23 10:41 | 42.19485 | 61.84351 | 35251 ft | 426 kts | 278° |
| 2026-04-23 10:41 | 42.20047 | 61.80436 | 35013 ft | 426 kts | 278° |
| 2026-04-23 10:42 | 42.20607 | 61.76509 | 34776 ft | 426 kts | 278° |
| 2026-04-23 10:42 | 42.21168 | 61.72584 | 34414 ft | 427 kts | 279° |
| 2026-04-23 10:42 | 42.21731 | 61.68633 | 33444 ft | 431 kts | 279° |
| 2026-04-23 10:42 | 42.22295 | 61.64653 | 32515 ft | 433 kts | 279° |
| 2026-04-23 10:43 | 42.22857 | 61.60655 | 31564 ft | 435 kts | 279° |
| 2026-04-23 10:43 | 42.23422 | 61.56638 | 30668 ft | 437 kts | 280° |
| 2026-04-23 10:43 | 42.23990 | 61.52584 | 29524 ft | 443 kts | 280° |
| 2026-04-23 10:43 | 42.24254 | 61.50699 | 29137 ft | 442 kts | 280° |
| 2026-04-23 10:44 | 42.24807 | 61.46731 | 28672 ft | 431 kts | 280° |
| 2026-04-23 10:44 | 42.25356 | 61.42787 | 28002 ft | 427 kts | 280° |
| 2026-04-23 10:44 | 42.25903 | 61.38868 | 27367 ft | 422 kts | 280° |
| 2026-04-23 10:44 | 42.26443 | 61.34998 | 26733 ft | 417 kts | 280° |
| 2026-04-23 10:45 | 42.26977 | 61.31170 | 26123 ft | 413 kts | 280° |
| 2026-04-23 10:45 | 42.27505 | 61.27376 | 25517 ft | 409 kts | 280° |
| 2026-04-23 10:45 | 42.28026 | 61.23612 | 24923 ft | 406 kts | 280° |
| 2026-04-23 10:45 | 42.28540 | 61.19876 | 24323 ft | 403 kts | 280° |
| 2026-04-23 10:46 | 42.29046 | 61.16164 | 23736 ft | 401 kts | 280° |
| 2026-04-23 10:46 | 42.29548 | 61.12473 | 23098 ft | 398 kts | 280° |
| 2026-04-23 10:46 | 42.30047 | 61.08812 | 22537 ft | 394 kts | 280° |
| 2026-04-23 10:46 | 42.30539 | 61.05189 | 22017 ft | 390 kts | 280° |
| 2026-04-23 10:47 | 42.31026 | 61.01600 | 21505 ft | 387 kts | 280° |
| 2026-04-23 10:47 | 42.31507 | 60.98044 | 21024 ft | 383 kts | 280° |
| 2026-04-23 10:47 | 42.31982 | 60.94523 | 20552 ft | 379 kts | 280° |
| 2026-04-23 10:47 | 42.32452 | 60.91037 | 20087 ft | 376 kts | 279° |
| 2026-04-23 10:48 | 42.32916 | 60.87582 | 19638 ft | 372 kts | 279° |
| 2026-04-23 10:48 | 42.33374 | 60.84159 | 19200 ft | 368 kts | 279° |
| 2026-04-23 10:48 | 42.33828 | 60.80766 | 18761 ft | 365 kts | 279° |
| 2026-04-23 10:48 | 42.34279 | 60.77399 | 18307 ft | 363 kts | 279° |
| 2026-04-23 10:49 | 42.34722 | 60.74054 | 17808 ft | 360 kts | 279° |
| 2026-04-23 10:49 | 42.35159 | 60.70736 | 17343 ft | 357 kts | 279° |
| 2026-04-23 10:49 | 42.35593 | 60.67450 | 16885 ft | 354 kts | 279° |
| 2026-04-23 10:49 | 42.36025 | 60.64191 | 16414 ft | 351 kts | 279° |
| 2026-04-23 10:50 | 42.36455 | 60.60946 | 15944 ft | 350 kts | 279° |
| 2026-04-23 10:50 | 42.36883 | 60.57720 | 15470 ft | 348 kts | 279° |
| 2026-04-23 10:50 | 42.37308 | 60.54505 | 14992 ft | 347 kts | 279° |
| 2026-04-23 10:50 | 42.37729 | 60.51300 | 14504 ft | 346 kts | 279° |
| 2026-04-23 10:51 | 42.38147 | 60.48105 | 14025 ft | 345 kts | 279° |
| 2026-04-23 10:51 | 42.38565 | 60.44913 | 13513 ft | 344 kts | 279° |
| 2026-04-23 10:51 | 42.38979 | 60.41737 | 13033 ft | 341 kts | 279° |
| 2026-04-23 10:51 | 42.39386 | 60.38588 | 12540 ft | 339 kts | 279° |
| 2026-04-23 10:52 | 42.39789 | 60.35455 | 12031 ft | 337 kts | 279° |
| 2026-04-23 10:52 | 42.40189 | 60.32340 | 11539 ft | 335 kts | 278° |
| 2026-04-23 10:52 | 42.40586 | 60.29240 | 11034 ft | 333 kts | 278° |
| 2026-04-23 10:52 | 42.41154 | 60.26218 | 10668 ft | 328 kts | 289° |
| 2026-04-23 10:53 | 42.42139 | 60.23499 | 10542 ft | 317 kts | 300° |
| 2026-04-23 10:53 | 42.43262 | 60.21002 | 10417 ft | 304 kts | 299° |
| 2026-04-23 10:53 | 42.44336 | 60.18599 | 10291 ft | 293 kts | 299° |
| 2026-04-23 10:53 | 42.45377 | 60.16259 | 10061 ft | 287 kts | 299° |
| 2026-04-23 10:54 | 42.46402 | 60.13957 | 9894 ft | 284 kts | 299° |
| 2026-04-23 10:54 | 42.47421 | 60.11672 | 9770 ft | 284 kts | 299° |
| 2026-04-23 10:54 | 42.48445 | 60.09384 | 9470 ft | 283 kts | 299° |
| 2026-04-23 10:54 | 42.49458 | 60.07112 | 9087 ft | 281 kts | 299° |
| 2026-04-23 10:55 | 42.50462 | 60.04853 | 8706 ft | 279 kts | 299° |
| 2026-04-23 10:55 | 42.51458 | 60.02608 | 8320 ft | 277 kts | 299° |
| 2026-04-23 10:55 | 42.52447 | 60.00380 | 7943 ft | 275 kts | 299° |
| 2026-04-23 10:55 | 42.53422 | 59.98195 | 7767 ft | 265 kts | 299° |
| 2026-04-23 10:56 | 42.54352 | 59.96111 | 7648 ft | 252 kts | 299° |
| 2026-04-23 10:56 | 42.55226 | 59.94157 | 7454 ft | 235 kts | 298° |
| 2026-04-23 10:56 | 42.56057 | 59.92289 | 7033 ft | 229 kts | 298° |
| 2026-04-23 10:56 | 42.56872 | 59.90446 | 6555 ft | 227 kts | 298° |
| 2026-04-23 10:57 | 42.57679 | 59.88619 | 6037 ft | 225 kts | 298° |
| 2026-04-23 10:57 | 42.58484 | 59.86798 | 5641 ft | 226 kts | 298° |
| 2026-04-23 10:57 | 42.59291 | 59.84971 | 5301 ft | 225 kts | 298° |
| 2026-04-23 10:57 | 42.60096 | 59.83150 | 4984 ft | 225 kts | 298° |
| 2026-04-23 10:58 | 42.60898 | 59.81336 | 4657 ft | 225 kts | 298° |
| 2026-04-23 10:58 | 42.61704 | 59.79509 | 4350 ft | 226 kts | 298° |
| 2026-04-23 10:58 | 42.62510 | 59.77681 | 4037 ft | 226 kts | 298° |
| 2026-04-23 10:58 | 42.63312 | 59.75858 | 3712 ft | 223 kts | 297° |
| 2026-04-23 10:59 | 42.64096 | 59.74075 | 3224 ft | 222 kts | 298° |
| 2026-04-23 10:59 | 42.64889 | 59.72274 | 2754 ft | 222 kts | 297° |
| 2026-04-23 10:59 | 42.65678 | 59.70476 | 2312 ft | 221 kts | 298° |
| 2026-04-23 10:59 | 42.66465 | 59.68689 | 1928 ft | 220 kts | 297° |
| 2026-04-23 11:00 | 42.67133 | 59.66863 | 1909 ft | 215 kts | 284° |
| 2026-04-23 11:00 | 42.67412 | 59.64875 | 1912 ft | 215 kts | 270° |
| 2026-04-23 11:00 | 42.67281 | 59.62863 | 1866 ft | 213 kts | 255° |
| 2026-04-23 11:00 | 42.66759 | 59.60993 | 1812 ft | 209 kts | 242° |
| 2026-04-23 11:01 | 42.66138 | 59.59257 | 1732 ft | 200 kts | 243° |
| 2026-04-23 11:01 | 42.65548 | 59.57578 | 1636 ft | 193 kts | 243° |
| 2026-04-23 11:01 | 42.64960 | 59.55972 | 1588 ft | 186 kts | 236° |
| 2026-04-23 11:01 | 42.64051 | 59.54718 | 1609 ft | 187 kts | 211° |
| 2026-04-23 11:02 | 42.62856 | 59.54090 | 1613 ft | 186 kts | 189° |
| 2026-04-23 11:02 | 42.61632 | 59.54170 | 1631 ft | 168 kts | 168° |
| 2026-04-23 11:02 | 42.60620 | 59.54750 | 1584 ft | 150 kts | 157° |
| 2026-04-23 11:02 | 42.59701 | 59.55348 | 1602 ft | 143 kts | 158° |
| 2026-04-23 11:03 | 42.58807 | 59.55921 | 1610 ft | 141 kts | 157° |
| 2026-04-23 11:03 | 42.57926 | 59.56487 | 1601 ft | 138 kts | 158° |
| 2026-04-23 11:03 | 42.57058 | 59.57044 | 1600 ft | 138 kts | 158° |
| 2026-04-23 11:03 | 42.56186 | 59.57602 | 1611 ft | 139 kts | 158° |
| 2026-04-23 11:04 | 42.55303 | 59.58171 | 1419 ft | 139 kts | 159° |
| 2026-04-23 11:04 | 42.54435 | 59.58729 | 1216 ft | 138 kts | 159° |
| 2026-04-23 11:04 | 42.53568 | 59.59284 | 1027 ft | 137 kts | 158° |
| 2026-04-23 11:04 | 42.52705 | 59.59838 | 840 ft | 137 kts | 156° |
| 2026-04-23 11:05 | 42.51856 | 59.60391 | 681 ft | 134 kts | 156° |
| 2026-04-23 11:05 | 42.51008 | 59.60939 | 464 ft | 134 kts | 157° |
| 2026-04-23 11:05 | 42.50165 | 59.61478 | 293 ft | 134 kts | 156° |
| 2026-04-23 11:05 | 42.49394 | 59.61972 | 253 ft | 101 kts | 154° |
| 2026-04-23 11:06 | 42.48730 | 59.62401 | 254 ft | 19 kts | 155° |
| 2026-04-23 11:06 | 42.48616 | 59.62473 | 252 ft | 18 kts | 155° |
| 2026-04-23 11:06 | 42.48514 | 59.62539 | 252 ft | 15 kts | 155° |
| 2026-04-23 11:07 | 42.48433 | 59.62591 | 253 ft | 10 kts | 154° |
| 2026-04-23 11:07 | 42.48381 | 59.62563 | 254 ft | 8 kts | 234° |
| 2026-04-23 11:07 | 42.48366 | 59.62503 | 254 ft | 6 kts | 252° |
| 2026-04-23 11:07 | 42.48356 | 59.62459 | 255 ft | 4 kts | 253° |
| 2026-04-23 11:08 | 42.48347 | 59.62421 | 256 ft | 5 kts | 253° |
| 2026-04-23 11:08 | 42.48328 | 59.62332 | 255 ft | 14 kts | 253° |
| 2026-04-23 11:08 | 42.48302 | 59.62216 | 255 ft | 14 kts | 253° |
| 2026-04-23 11:08 | 42.48276 | 59.62096 | 255 ft | 10 kts | 253° |
| 2026-04-23 11:09 | 42.48233 | 59.62067 | 255 ft | 8 kts | 163° |
| 2026-04-23 11:09 | 42.48172 | 59.62078 | 255 ft | 10 kts | 204° |
| 2026-04-23 11:09 | 42.48148 | 59.61994 | 255 ft | 9 kts | 260° |
| 2026-04-23 11:09 | 42.48146 | 59.61928 | 255 ft | 6 kts | 294° |
| 2026-04-23 11:10 | 42.48176 | 59.61906 | 256 ft | 4 kts | 343° |
| 2026-04-23 11:10 | 42.48194 | 59.61899 | 255 ft | 0 kts | 342° |